MMAS/AGU METAR and TAF weather

Enter ICAO airport designator
Station Type Date Time Source
MMAS METAR 2020/07/12 19:41 UTC NOAA

MMAS 121941Z 18008KT 13SM BKN040 27/09 A3027 RMK 8/100


Station Type Date Time Source
MMAS Decoded METAR 2020/07/12 19:41 UTC NOAA

Aguascalientes, Ags., Mexico (MMAS) 21-53N 102-18W
Jul 12, 2020 - 03:41 PM EDT / 2020.07.12 1941 UTC
Wind: from the S (180 degrees) at 9 MPH (8 KT):0
Visibility: 13 mile(s):0
Sky conditions: mostly cloudy
Temperature: 80 F (27 C)
Dew Point: 48 F (9 C)
Relative Humidity: 32%
Pressure (altimeter): 30.27 in. Hg (1025 hPa)
ob: MMAS 121941Z 18008KT 13SM BKN040 27/09 A3027 RMK 8/100
cycle: 19

Station Type Date Time Source
MMAS TAF 2020/07/12 18:58 UTC NOAA

TAF MMAS 121656Z 1218/1318 07010KT P6SM SCT030
TEMPO 1222/1302 5SM TSRA BKN025CB
FM130300 12010KT P6SM SCT080 BKN200

Example: see airport list